createdAt,value
2023-03-31T00:03:21.908Z,19.35
2023-03-31T00:08:30.505Z,16.58
2023-03-31T00:13:34.967Z,14.73
2023-03-31T00:18:47.789Z,15.55
2023-03-31T00:23:51.691Z,16.90
2023-03-31T00:28:55.422Z,18.70
2023-03-31T00:34:00.510Z,15.73
2023-03-31T00:39:07.037Z,12.02
2023-03-31T00:44:14.951Z,11.75
2023-03-31T00:49:26.495Z,12.30
2023-03-31T00:54:33.462Z,11.32
2023-03-31T00:59:40.598Z,13.52
2023-03-31T01:04:54.733Z,15.75
2023-03-31T01:10:01.150Z,12.68
2023-03-31T01:15:06.072Z,16.10
2023-03-31T01:20:22.066Z,15.93
2023-03-31T01:25:50.358Z,23.00
2023-03-31T01:31:27.255Z,20.52
2023-03-31T01:36:59.983Z,16.95
2023-03-31T01:42:13.195Z,12.95
2023-03-31T01:47:22.933Z,18.95
2023-03-31T01:52:32.703Z,20.20
2023-03-31T01:57:41.614Z,15.88
2023-03-31T02:02:50.206Z,12.88
2023-03-31T02:07:57.530Z,21.85
2023-03-31T02:13:04.775Z,19.35
2023-03-31T02:18:12.216Z,16.52
2023-03-31T02:23:20.696Z,18.67
2023-03-31T02:28:28.416Z,18.02
2023-03-31T02:33:32.277Z,17.97
2023-03-31T02:38:40.661Z,9.82
2023-03-31T02:48:52.487Z,11.98
2023-03-31T02:54:21.510Z,15.35
2023-03-31T02:59:40.661Z,13.40
2023-03-31T03:05:04.759Z,15.43
2023-03-31T03:10:12.970Z,22.90
2023-03-31T03:15:25.766Z,14.13
2023-03-31T03:20:29.579Z,16.05
2023-03-31T03:25:34.154Z,19.98
2023-03-31T03:30:39.594Z,20.37
2023-03-31T03:35:43.467Z,18.30
2023-03-31T03:40:49.627Z,20.25
2023-03-31T03:45:55.485Z,16.58
2023-03-31T03:51:00.891Z,20.55
2023-03-31T03:56:04.830Z,17.40
2023-03-31T04:01:10.060Z,12.73
2023-03-31T04:06:13.852Z,11.38
2023-03-31T04:11:19.370Z,14.52
2023-03-31T04:16:25.568Z,10.10
2023-03-31T04:21:30.667Z,8.07
2023-03-31T04:26:43.152Z,13.95
2023-03-31T04:31:50.694Z,12.15
2023-03-31T04:36:56.171Z,13.15
2023-03-31T04:42:00.849Z,15.73
2023-03-31T04:47:06.976Z,11.38
2023-03-31T04:52:10.695Z,11.45
2023-03-31T04:57:14.425Z,11.07
2023-03-31T05:02:25.087Z,14.50
2023-03-31T05:07:29.351Z,13.62
2023-03-31T05:12:35.381Z,8.88
2023-03-31T05:17:40.450Z,10.13
2023-03-31T05:22:44.252Z,14.20
2023-03-31T05:27:48.733Z,8.27
2023-03-31T05:32:54.276Z,10.00
2023-03-31T05:37:58.154Z,12.35
2023-03-31T05:43:01.880Z,7.68
2023-03-31T05:48:07.423Z,5.22
2023-03-31T05:53:11.945Z,6.87
2023-03-31T05:58:15.647Z,6.75
2023-03-31T06:03:20.742Z,22.08
2023-03-31T06:08:24.941Z,6.15
2023-03-31T06:13:28.656Z,9.20
2023-03-31T06:18:35.257Z,11.82
2023-03-31T06:23:38.994Z,9.35
2023-03-31T06:28:42.997Z,9.43
2023-03-31T06:33:48.614Z,6.93
2023-03-31T06:38:52.744Z,7.32
2023-03-31T06:43:56.493Z,13.98
2023-03-31T06:49:01.590Z,9.38
2023-03-31T06:54:05.363Z,7.20
2023-03-31T06:59:09.049Z,7.10
2023-03-31T07:04:14.081Z,10.65
2023-03-31T07:09:18.639Z,12.65
2023-03-31T07:14:22.710Z,18.23
2023-03-31T07:19:27.892Z,8.85
2023-03-31T07:24:31.597Z,17.17
2023-03-31T07:29:35.435Z,22.42
2023-03-31T07:34:41.606Z,21.30
2023-03-31T07:39:45.423Z,21.80
2023-03-31T07:44:49.344Z,24.85
2023-03-31T07:49:54.899Z,22.98
2023-03-31T07:54:58.693Z,19.77
2023-03-31T08:00:06.514Z,20.58
2023-03-31T08:05:18.514Z,22.98
2023-03-31T08:10:25.932Z,33.00
2023-03-31T08:15:30.115Z,21.95
2023-03-31T08:20:35.237Z,31.20
2023-03-31T08:25:39.529Z,21.70
2023-03-31T08:30:44.034Z,27.52
2023-03-31T08:35:49.174Z,42.25
2023-03-31T08:40:52.890Z,21.98
2023-03-31T08:45:57.177Z,26.12
2023-03-31T08:51:07.003Z,30.15
2023-03-31T08:56:17.778Z,26.55
2023-03-31T09:01:38.112Z,27.80
2023-03-31T09:06:58.812Z,23.00
2023-03-31T09:12:09.904Z,22.73
2023-03-31T09:17:24.216Z,24.20
2023-03-31T09:22:35.854Z,21.62
2023-03-31T09:27:42.637Z,18.60
2023-03-31T09:32:48.606Z,15.88
2023-03-31T09:37:54.825Z,15.93
2023-03-31T09:43:01.812Z,18.55
2023-03-31T09:48:12.405Z,24.27
2023-03-31T09:53:23.144Z,16.17
2023-03-31T09:58:27.142Z,16.48
2023-03-31T10:03:36.758Z,16.77
2023-03-31T10:08:44.197Z,18.77
2023-03-31T10:13:50.382Z,15.85
2023-03-31T10:18:54.115Z,17.10
2023-03-31T10:24:02.653Z,19.40
2023-03-31T10:29:12.678Z,22.45
2023-03-31T10:34:17.700Z,21.55
2023-03-31T10:39:29.537Z,14.57
2023-03-31T10:44:36.909Z,15.80
2023-03-31T10:49:42.572Z,21.73
2023-03-31T10:54:54.095Z,16.92
2023-03-31T11:00:13.208Z,15.32
2023-03-31T11:05:23.301Z,17.10
2023-03-31T11:10:54.856Z,19.50
2023-03-31T11:16:08.064Z,12.13
2023-03-31T11:21:22.021Z,15.38
2023-03-31T11:26:36.309Z,19.45
2023-03-31T11:31:50.808Z,18.23
2023-03-31T11:37:18.337Z,16.80
2023-03-31T11:42:28.666Z,16.37
2023-03-31T11:47:38.671Z,16.27
2023-03-31T11:52:48.345Z,22.52
2023-03-31T11:58:02.248Z,19.42
2023-03-31T12:03:12.395Z,16.27
2023-03-31T12:08:19.809Z,15.70
2023-03-31T12:13:42.064Z,19.33
2023-03-31T12:18:58.313Z,20.83
2023-03-31T12:24:02.105Z,16.12
2023-03-31T12:29:16.815Z,18.40
2023-03-31T12:34:23.298Z,14.25
2023-03-31T12:39:39.742Z,13.93
2023-03-31T12:44:57.721Z,14.90
2023-03-31T12:50:16.793Z,13.20
2023-03-31T12:55:39.033Z,16.55
2023-03-31T13:01:06.781Z,13.52
2023-03-31T13:11:16.386Z,8.52
2023-03-31T13:16:22.098Z,10.20
2023-03-31T13:21:26.476Z,8.77
2023-03-31T13:26:48.065Z,11.07
2023-03-31T13:32:19.184Z,7.32
2023-03-31T13:37:38.590Z,7.40
2023-03-31T13:43:06.232Z,6.15
2023-03-31T13:48:37.620Z,2.62
2023-03-31T13:54:06.442Z,12.80
2023-03-31T13:59:21.953Z,7.68
2023-03-31T14:04:52.248Z,5.72
2023-03-31T14:09:58.310Z,6.50
2023-03-31T14:15:02.114Z,8.98
2023-03-31T14:20:27.508Z,4.53
2023-03-31T14:25:42.828Z,5.18
2023-03-31T14:30:58.769Z,3.40
2023-03-31T14:36:15.970Z,7.40
2023-03-31T14:41:29.416Z,6.45
2023-03-31T14:46:38.010Z,3.95
2023-03-31T14:51:45.154Z,4.80
2023-03-31T14:56:52.756Z,3.62
2023-03-31T15:01:59.408Z,3.80
2023-03-31T15:07:06.169Z,3.22
2023-03-31T15:12:16.155Z,1.60
2023-03-31T15:17:22.490Z,3.47
2023-03-31T15:22:29.824Z,1.83
2023-03-31T15:27:38.120Z,3.35
2023-03-31T15:37:47.743Z,2.92
2023-03-31T15:43:06.071Z,5.03
2023-03-31T15:48:21.702Z,3.90
2023-03-31T15:53:31.184Z,2.55
2023-03-31T15:58:54.069Z,2.87
2023-03-31T16:03:58.256Z,3.03
2023-03-31T16:09:08.334Z,2.25
2023-03-31T16:14:20.060Z,2.83
2023-03-31T16:19:27.457Z,2.25
2023-03-31T16:24:35.999Z,3.20
2023-03-31T16:29:41.043Z,2.75
2023-03-31T16:34:56.899Z,1.30
2023-03-31T16:40:02.088Z,3.42
2023-03-31T16:50:15.305Z,3.00
2023-03-31T16:55:20.623Z,3.83
2023-03-31T17:00:24.579Z,6.72
2023-03-31T17:10:34.460Z,6.82
2023-03-31T17:15:38.868Z,5.87
2023-03-31T17:20:42.703Z,7.80
2023-03-31T17:25:49.722Z,10.70
2023-03-31T17:30:53.545Z,8.48
2023-03-31T17:35:58.799Z,12.55
2023-03-31T17:41:05.837Z,10.43
2023-03-31T17:46:12.716Z,12.43
2023-03-31T17:51:18.508Z,6.33
2023-03-31T17:56:23.829Z,8.60
2023-03-31T18:01:27.688Z,6.90
2023-03-31T18:06:31.795Z,11.55
2023-03-31T18:11:37.339Z,15.70
2023-03-31T18:16:41.662Z,10.00
2023-03-31T18:21:45.398Z,9.02
2023-03-31T18:26:50.430Z,7.00
2023-03-31T18:31:54.351Z,9.07
2023-03-31T18:36:58.176Z,11.50
2023-03-31T18:42:04.133Z,10.32
2023-03-31T18:47:08.054Z,9.23
2023-03-31T18:52:11.889Z,14.43
2023-03-31T18:57:17.652Z,9.25
2023-03-31T19:02:21.960Z,5.32
2023-03-31T19:07:25.681Z,13.00
2023-03-31T19:12:30.807Z,11.38
2023-03-31T19:17:34.540Z,13.13
2023-03-31T19:22:38.369Z,13.85
2023-03-31T19:27:44.480Z,18.37
2023-03-31T19:32:49.832Z,18.23
2023-03-31T19:37:53.554Z,17.35
2023-03-31T19:42:58.752Z,18.58
2023-03-31T19:48:02.627Z,21.25
2023-03-31T19:53:07.071Z,23.98
2023-03-31T19:58:12.653Z,17.33
2023-03-31T20:03:16.516Z,16.90
2023-03-31T20:08:20.468Z,17.30
2023-03-31T20:13:25.611Z,28.80
2023-03-31T20:18:29.668Z,17.40
2023-03-31T20:23:34.148Z,13.98
2023-03-31T20:28:40.179Z,9.73
2023-03-31T20:33:44.617Z,10.63
2023-03-31T20:38:51.307Z,16.45
2023-03-31T20:43:56.974Z,19.62
2023-03-31T20:49:00.947Z,16.33
2023-03-31T20:54:05.637Z,13.77
2023-03-31T20:59:12.609Z,14.55
2023-03-31T21:04:16.961Z,15.20
2023-03-31T21:09:20.938Z,14.23
2023-03-31T21:14:26.032Z,16.95
2023-03-31T21:19:29.791Z,8.02
2023-03-31T21:24:33.999Z,18.30
2023-03-31T21:29:39.498Z,15.15
2023-03-31T21:34:43.457Z,12.88
2023-03-31T21:39:47.430Z,14.38
2023-03-31T21:44:58.809Z,17.08
2023-03-31T21:50:02.647Z,9.18
2023-03-31T21:55:06.938Z,17.67
2023-03-31T22:00:15.742Z,13.07
2023-03-31T22:05:19.792Z,10.98
2023-03-31T22:10:23.595Z,13.68
2023-03-31T22:15:28.764Z,17.15
2023-03-31T22:20:32.793Z,10.60
2023-03-31T22:25:36.813Z,10.75
2023-03-31T22:30:41.984Z,13.40
2023-03-31T22:35:45.805Z,13.00
2023-03-31T22:40:49.618Z,9.80
2023-03-31T22:45:54.706Z,20.15
2023-03-31T22:50:58.579Z,12.35
2023-03-31T22:56:07.400Z,17.55
2023-03-31T23:01:15.704Z,16.23
2023-03-31T23:11:23.049Z,12.88
2023-03-31T23:16:28.102Z,16.87
2023-03-31T23:21:32.492Z,13.50
2023-03-31T23:26:36.203Z,13.55
2023-03-31T23:31:41.478Z,10.95
2023-03-31T23:36:45.412Z,8.82
2023-03-31T23:41:49.106Z,13.30
2023-03-31T23:46:54.226Z,11.23
2023-03-31T23:51:58.127Z,10.05
2023-03-31T23:57:01.897Z,9.98
